createdAt,value
2023-01-13T00:01:14.760Z,5.85
2023-01-13T00:03:41.452Z,5.87
2023-01-13T00:06:08.493Z,5.87
2023-01-13T00:08:45.422Z,5.82
2023-01-13T00:11:11.920Z,5.85
2023-01-13T00:13:38.952Z,5.92
2023-01-13T00:16:06.387Z,5.89
2023-01-13T00:18:33.333Z,5.88
2023-01-13T00:21:01.664Z,5.90
2023-01-13T00:23:28.279Z,5.91
2023-01-13T00:25:58.209Z,5.89
2023-01-13T00:28:24.733Z,5.89
2023-01-13T00:30:51.300Z,5.86
2023-01-13T00:33:17.885Z,5.82
2023-01-13T00:35:44.385Z,5.84
2023-01-13T00:38:10.937Z,5.84
2023-01-13T00:40:37.377Z,5.82
2023-01-13T00:43:22.469Z,5.79
2023-01-13T00:45:51.535Z,5.82
2023-01-13T00:48:21.445Z,5.79
2023-01-13T00:50:53.944Z,5.70
2023-01-13T00:53:20.510Z,5.73
2023-01-13T00:55:46.980Z,5.72
2023-01-13T00:58:13.513Z,5.76
2023-01-13T01:00:40.102Z,5.71
2023-01-13T01:03:12.356Z,5.71
2023-01-13T01:05:39.532Z,5.70
2023-01-13T01:08:06.018Z,5.69
2023-01-13T01:10:32.630Z,5.74
2023-01-13T01:12:59.176Z,5.73
2023-01-13T01:15:25.718Z,5.76
2023-01-13T01:17:52.318Z,5.75
2023-01-13T01:20:18.843Z,5.73
2023-01-13T01:22:45.304Z,5.78
2023-01-13T01:25:11.849Z,5.80
2023-01-13T01:27:38.353Z,5.78
2023-01-13T01:30:05.082Z,5.77
2023-01-13T01:32:33.536Z,5.78
2023-01-13T01:35:00.128Z,5.84
2023-01-13T01:37:28.641Z,5.82
2023-01-13T01:39:55.140Z,5.85
2023-01-13T01:42:40.905Z,5.82
2023-01-13T01:45:23.541Z,5.78
2023-01-13T01:47:50.899Z,5.76
2023-01-13T01:50:17.423Z,5.80
2023-01-13T01:56:12.633Z,5.90
2023-01-13T01:58:45.658Z,5.96
2023-01-13T02:01:41.329Z,5.99
2023-01-13T02:04:21.199Z,6.03
2023-01-13T02:06:47.809Z,5.97
2023-01-13T02:09:14.389Z,5.95
2023-01-13T02:11:59.611Z,5.90
2023-01-13T02:14:26.962Z,5.95
2023-01-13T02:16:58.365Z,5.96
2023-01-13T02:19:29.422Z,6.01
2023-01-13T02:21:55.909Z,6.01
2023-01-13T02:24:47.126Z,5.98
2023-01-13T02:27:34.515Z,5.98
2023-01-13T02:30:23.283Z,6.00
2023-01-13T02:32:56.089Z,6.02
2023-01-13T02:35:41.452Z,6.00
2023-01-13T02:38:08.274Z,6.01
2023-01-13T02:40:36.366Z,6.06
2023-01-13T02:43:35.966Z,6.03
2023-01-13T02:46:04.054Z,6.06
2023-01-13T02:48:30.900Z,6.06
2023-01-13T02:50:59.839Z,6.02
2023-01-13T02:53:28.297Z,6.04
2023-01-13T02:55:54.805Z,6.07
2023-01-13T02:58:22.719Z,6.07
2023-01-13T03:00:49.276Z,6.06
2023-01-13T03:03:15.779Z,6.04
2023-01-13T03:05:42.498Z,6.11
2023-01-13T03:08:08.960Z,6.15
2023-01-13T03:10:50.125Z,6.14
2023-01-13T03:13:27.951Z,6.08
2023-01-13T03:16:00.960Z,6.04
2023-01-13T03:18:27.399Z,6.02
2023-01-13T03:20:56.417Z,6.01
2023-01-13T03:23:25.265Z,5.92
2023-01-13T03:26:24.294Z,5.97
2023-01-13T03:28:59.546Z,5.98
2023-01-13T03:31:27.811Z,5.95
2023-01-13T03:34:26.737Z,5.94
2023-01-13T03:36:53.431Z,5.91
2023-01-13T03:39:21.103Z,5.95
2023-01-13T03:41:53.430Z,5.94
2023-01-13T03:44:38.563Z,5.89
2023-01-13T03:47:11.351Z,5.88
2023-01-13T03:49:39.697Z,5.95
2023-01-13T03:52:07.329Z,5.97
2023-01-13T03:54:34.134Z,5.98
2023-01-13T03:57:02.639Z,5.90
2023-01-13T03:59:30.381Z,5.91
2023-01-13T04:01:57.014Z,5.88
2023-01-13T04:04:25.152Z,5.84
2023-01-13T04:06:51.734Z,5.83
2023-01-13T04:09:28.496Z,5.87
2023-01-13T04:12:02.191Z,5.89
2023-01-13T04:14:28.634Z,5.90
2023-01-13T04:16:55.382Z,5.88
2023-01-13T04:19:22.010Z,5.89
2023-01-13T04:21:48.493Z,5.90
2023-01-13T04:24:14.953Z,5.92
2023-01-13T04:26:41.463Z,5.94
2023-01-13T04:29:07.946Z,5.92
2023-01-13T04:31:34.485Z,5.97
2023-01-13T04:34:00.936Z,5.98
2023-01-13T04:36:30.443Z,6.05
2023-01-13T04:38:56.951Z,6.07
2023-01-13T04:41:23.388Z,6.03
2023-01-13T04:43:49.825Z,6.10
2023-01-13T04:46:16.361Z,6.08
2023-01-13T04:48:42.829Z,6.09
2023-01-13T04:51:09.313Z,6.10
2023-01-13T04:53:35.765Z,6.12
2023-01-13T04:56:02.286Z,6.13
2023-01-13T04:58:28.769Z,6.10
2023-01-13T05:00:55.554Z,6.06
2023-01-13T05:03:22.284Z,6.04
2023-01-13T05:05:50.921Z,6.04
2023-01-13T05:08:17.404Z,6.05
2023-01-13T05:10:43.888Z,6.02
2023-01-13T05:13:29.080Z,6.01
2023-01-13T05:16:14.252Z,6.01
2023-01-13T05:18:40.776Z,6.02
2023-01-13T05:21:27.181Z,5.93
2023-01-13T05:24:12.403Z,5.97
2023-01-13T05:26:38.863Z,5.99
2023-01-13T05:29:05.280Z,5.95
2023-01-13T05:31:31.824Z,6.01
2023-01-13T05:34:36.391Z,5.99
2023-01-13T05:37:03.347Z,5.93
2023-01-13T05:39:49.748Z,5.94
2023-01-13T05:42:35.025Z,6.01
2023-01-13T05:45:01.635Z,6.05
2023-01-13T05:47:28.129Z,6.09
2023-01-13T05:49:54.563Z,6.06
2023-01-13T05:52:20.987Z,6.03
2023-01-13T05:54:47.491Z,6.09
2023-01-13T05:57:13.967Z,6.10
2023-01-13T05:59:40.393Z,6.12
2023-01-13T06:02:06.982Z,6.05
2023-01-13T06:04:33.599Z,6.00
2023-01-13T06:07:00.191Z,5.97
2023-01-13T06:09:26.610Z,5.90
2023-01-13T06:11:53.095Z,5.90
2023-01-13T06:14:19.563Z,5.87
2023-01-13T06:16:45.993Z,5.82
2023-01-13T06:19:13.488Z,5.80
2023-01-13T06:21:40.056Z,5.83
2023-01-13T06:24:07.192Z,5.85
2023-01-13T06:26:34.851Z,5.84
2023-01-13T06:29:01.267Z,5.78
2023-01-13T06:31:28.707Z,5.69
2023-01-13T06:33:59.672Z,5.70
2023-01-13T06:36:27.424Z,5.72
2023-01-13T06:38:54.940Z,5.73
2023-01-13T06:41:43.507Z,5.74
2023-01-13T06:44:10.155Z,5.76
2023-01-13T06:46:36.710Z,5.80
2023-01-13T06:49:03.411Z,5.79
2023-01-13T06:51:29.856Z,5.82
2023-01-13T06:53:56.356Z,5.81
2023-01-13T06:56:22.795Z,5.83
2023-01-13T06:58:49.206Z,5.87
2023-01-13T07:01:15.786Z,5.95
2023-01-13T07:03:55.703Z,5.96
2023-01-13T07:06:22.134Z,6.01
2023-01-13T07:08:48.556Z,5.97
2023-01-13T07:11:15.074Z,5.99
2023-01-13T07:14:00.146Z,5.93
2023-01-13T07:16:28.228Z,5.94
2023-01-13T07:18:54.735Z,6.01
2023-01-13T07:21:21.225Z,5.99
2023-01-13T07:23:47.697Z,6.07
2023-01-13T07:26:14.296Z,6.23
2023-01-13T07:28:40.937Z,6.22
2023-01-13T07:31:13.073Z,6.18
2023-01-13T07:33:39.682Z,6.23
2023-01-13T07:36:06.248Z,6.24
2023-01-13T07:38:32.823Z,6.28
2023-01-13T07:41:19.399Z,6.28
2023-01-13T07:43:45.920Z,6.28
2023-01-13T07:46:12.478Z,6.36
2023-01-13T07:48:39.004Z,6.36
2023-01-13T07:51:06.285Z,6.35
2023-01-13T07:53:32.775Z,6.37
2023-01-13T07:59:27.325Z,6.43
2023-01-13T08:01:53.982Z,6.41
2023-01-13T08:04:20.600Z,6.38
2023-01-13T08:06:47.178Z,6.50
2023-01-13T08:09:13.738Z,6.51
2023-01-13T08:11:40.681Z,6.53
2023-01-13T08:14:07.211Z,6.59
2023-01-13T08:16:34.060Z,6.59
2023-01-13T08:19:00.552Z,6.58
2023-01-13T08:21:27.003Z,6.61
2023-01-13T08:23:53.495Z,6.65
2023-01-13T08:26:20.007Z,6.68
2023-01-13T08:28:46.452Z,6.75
2023-01-13T08:31:13.817Z,6.85
2023-01-13T08:33:40.416Z,6.87
2023-01-13T08:36:08.182Z,6.87
2023-01-13T08:38:34.805Z,6.90
2023-01-13T08:41:01.550Z,6.97
2023-01-13T08:43:28.131Z,6.97
2023-01-13T08:45:58.334Z,7.05
2023-01-13T08:48:25.017Z,7.00
2023-01-13T08:50:51.498Z,6.95
2023-01-13T08:53:18.044Z,6.94
2023-01-13T08:55:44.504Z,6.93
2023-01-13T08:58:15.907Z,6.98
2023-01-13T09:00:43.016Z,7.10
2023-01-13T09:03:09.490Z,7.06
2023-01-13T09:05:36.109Z,7.03
2023-01-13T09:08:02.579Z,7.08
2023-01-13T09:10:29.034Z,7.13
2023-01-13T09:13:13.947Z,7.20
2023-01-13T09:15:49.667Z,7.22
2023-01-13T09:18:16.174Z,7.25
2023-01-13T09:20:42.644Z,7.31
2023-01-13T09:23:11.024Z,7.36
2023-01-13T09:25:37.832Z,7.41
2023-01-13T09:28:08.733Z,7.43
2023-01-13T09:30:35.397Z,7.48
2023-01-13T09:33:20.543Z,7.47
2023-01-13T09:39:14.889Z,7.64
2023-01-13T09:42:02.532Z,7.66
2023-01-13T09:44:31.814Z,7.70
2023-01-13T09:46:59.955Z,7.69
2023-01-13T09:49:35.693Z,7.74
2023-01-13T09:52:03.411Z,7.78
2023-01-13T09:55:05.466Z,7.83
2023-01-13T09:57:36.805Z,7.89
2023-01-13T10:00:17.806Z,7.90
2023-01-13T10:03:04.672Z,8.02
2023-01-13T10:05:40.310Z,8.11
2023-01-13T10:08:13.784Z,8.26
2023-01-13T10:10:40.388Z,8.43
2023-01-13T10:13:20.139Z,8.53
2023-01-13T10:15:51.595Z,8.62
2023-01-13T10:18:38.330Z,8.72
2023-01-13T10:21:13.132Z,8.92
2023-01-13T10:23:42.649Z,9.02
2023-01-13T10:26:25.187Z,9.08
2023-01-13T10:28:52.931Z,9.16
2023-01-13T10:31:19.914Z,9.12
2023-01-13T10:33:46.462Z,9.11
2023-01-13T10:36:21.583Z,9.10
2023-01-13T10:38:48.778Z,9.03
2023-01-13T10:41:15.194Z,8.99
2023-01-13T10:44:01.373Z,8.96
2023-01-13T10:46:28.396Z,8.85
2023-01-13T10:48:58.648Z,8.75
2023-01-13T10:51:27.110Z,8.74
2023-01-13T10:53:55.066Z,8.71
2023-01-13T10:56:21.911Z,8.61
2023-01-13T10:58:48.392Z,8.58
2023-01-13T11:01:27.526Z,8.46
2023-01-13T11:03:54.335Z,8.39
2023-01-13T11:06:28.602Z,8.29
2023-01-13T11:08:55.629Z,8.22
2023-01-13T11:11:41.222Z,8.14
2023-01-13T11:14:27.925Z,8.07
2023-01-13T11:16:55.573Z,8.07
2023-01-13T11:19:22.691Z,7.95
2023-01-13T11:22:01.106Z,7.95
2023-01-13T11:24:27.531Z,7.98
2023-01-13T11:26:56.720Z,8.02
2023-01-13T11:29:37.700Z,8.11
2023-01-13T11:32:22.726Z,8.21
2023-01-13T11:34:52.581Z,8.26
2023-01-13T11:37:28.829Z,8.31
2023-01-13T11:39:56.326Z,8.40
2023-01-13T11:42:26.732Z,8.45
2023-01-13T11:44:56.349Z,8.50
2023-01-13T11:47:23.576Z,8.59
2023-01-13T11:49:50.030Z,8.73
2023-01-13T11:52:19.021Z,8.80
2023-01-13T11:55:04.374Z,8.91
2023-01-13T11:57:50.377Z,8.99
2023-01-13T12:00:36.888Z,9.01
2023-01-13T12:06:34.063Z,8.89
2023-01-13T12:09:00.538Z,8.85
2023-01-13T12:11:29.971Z,8.74
2023-01-13T12:14:02.774Z,8.70
2023-01-13T12:16:30.690Z,8.68
2023-01-13T12:19:18.714Z,8.68
2023-01-13T12:21:57.227Z,8.70
2023-01-13T12:24:53.240Z,8.72
2023-01-13T12:27:38.419Z,8.73
2023-01-13T12:30:13.046Z,8.71
2023-01-13T12:32:39.642Z,8.69
2023-01-13T12:35:06.049Z,8.67
2023-01-13T12:37:37.870Z,8.67
2023-01-13T12:40:11.618Z,8.72
2023-01-13T12:43:00.123Z,8.67
2023-01-13T12:45:28.488Z,8.64
2023-01-13T12:47:55.090Z,8.62
2023-01-13T12:50:24.893Z,8.59
2023-01-13T12:53:01.000Z,8.58
2023-01-13T12:55:28.251Z,8.55
2023-01-13T12:58:06.928Z,8.57
2023-01-13T13:00:39.586Z,8.59
2023-01-13T13:03:16.711Z,8.57
2023-01-13T13:05:47.976Z,8.54
2023-01-13T13:08:16.104Z,8.54
2023-01-13T13:10:44.770Z,8.57
2023-01-13T13:13:21.909Z,8.63
2023-01-13T13:15:51.548Z,8.59
2023-01-13T13:18:18.090Z,8.54
2023-01-13T13:20:55.011Z,8.50
2023-01-13T13:23:30.639Z,8.49
2023-01-13T13:26:15.554Z,8.46
2023-01-13T13:28:44.357Z,8.48
2023-01-13T13:31:17.477Z,8.55
2023-01-13T13:33:53.105Z,8.60
2023-01-13T13:36:38.357Z,8.59
2023-01-13T13:39:30.162Z,8.54
2023-01-13T13:42:17.303Z,8.51
2023-01-13T13:45:04.396Z,8.45
2023-01-13T13:47:39.888Z,8.44
2023-01-13T13:50:13.608Z,8.39
2023-01-13T13:52:41.275Z,8.40
2023-01-13T13:55:08.795Z,8.31
2023-01-13T13:57:39.456Z,8.28
2023-01-13T14:00:15.480Z,8.21
2023-01-13T14:02:46.728Z,8.16
2023-01-13T14:05:28.638Z,8.12
2023-01-13T14:08:14.608Z,8.04
2023-01-13T14:10:41.563Z,7.91
2023-01-13T14:13:14.051Z,7.89
2023-01-13T14:15:41.225Z,7.85
2023-01-13T14:18:34.347Z,7.84
2023-01-13T14:21:05.464Z,7.75
2023-01-13T14:23:32.625Z,7.56
2023-01-13T14:26:09.361Z,7.45
2023-01-13T14:28:36.707Z,7.24
2023-01-13T14:31:03.198Z,7.17
2023-01-13T14:33:34.179Z,7.09
2023-01-13T14:39:39.774Z,6.91
2023-01-13T14:42:11.350Z,6.84
2023-01-13T14:44:37.817Z,6.74
2023-01-13T14:50:33.919Z,6.67
2023-01-13T14:53:00.822Z,6.63
2023-01-13T14:55:27.278Z,6.57
2023-01-13T14:57:53.856Z,6.57
2023-01-13T15:00:21.785Z,6.52
2023-01-13T15:02:48.299Z,6.49
2023-01-13T15:05:18.830Z,6.45
2023-01-13T15:07:52.029Z,6.41
2023-01-13T15:10:19.028Z,6.37
2023-01-13T15:12:45.459Z,6.31
2023-01-13T15:15:30.390Z,6.28
2023-01-13T15:17:56.844Z,6.20
2023-01-13T15:20:23.707Z,6.23
2023-01-13T15:22:50.351Z,6.20
2023-01-13T15:25:16.804Z,6.19
2023-01-13T15:27:43.521Z,6.15
2023-01-13T15:30:28.178Z,6.12
2023-01-13T15:32:58.181Z,6.11
2023-01-13T15:35:25.610Z,6.20
2023-01-13T15:37:52.257Z,6.18
2023-01-13T15:40:20.033Z,6.26
2023-01-13T15:43:05.002Z,6.25
2023-01-13T15:45:50.087Z,6.27
2023-01-13T15:48:16.621Z,6.27
2023-01-13T15:50:43.048Z,6.23
2023-01-13T15:53:10.963Z,6.19
2023-01-13T15:55:37.433Z,6.18
2023-01-13T15:58:03.875Z,6.17
2023-01-13T16:00:30.370Z,6.15
2023-01-13T16:02:56.883Z,6.14
2023-01-13T16:05:23.366Z,6.13
2023-01-13T16:07:49.845Z,6.11
2023-01-13T16:10:17.319Z,6.12
2023-01-13T16:12:43.767Z,6.09
2023-01-13T16:15:12.334Z,6.12
2023-01-13T16:17:38.776Z,6.10
2023-01-13T16:20:05.432Z,6.12
2023-01-13T16:22:31.892Z,6.11
2023-01-13T16:24:58.369Z,6.19
2023-01-13T16:27:25.255Z,6.19
2023-01-13T16:29:51.979Z,6.12
2023-01-13T16:32:19.751Z,6.09
2023-01-13T16:34:46.888Z,6.09
2023-01-13T16:40:41.622Z,6.01
2023-01-13T16:43:08.960Z,6.01
2023-01-13T16:45:35.410Z,6.03
2023-01-13T16:48:01.921Z,6.04
2023-01-13T16:50:34.641Z,6.07
2023-01-13T16:53:01.210Z,6.10
2023-01-13T16:55:27.826Z,6.08
2023-01-13T16:57:54.585Z,6.07
2023-01-13T17:00:21.219Z,6.07
2023-01-13T17:02:47.813Z,6.08
2023-01-13T17:05:14.375Z,6.09
2023-01-13T17:07:44.294Z,6.03
2023-01-13T17:10:14.459Z,6.06
2023-01-13T17:12:40.911Z,6.05
2023-01-13T17:15:07.672Z,6.07
2023-01-13T17:17:34.146Z,6.06
2023-01-13T17:20:00.826Z,6.05
2023-01-13T17:22:27.338Z,6.05
2023-01-13T17:24:53.825Z,6.04
2023-01-13T17:27:21.471Z,6.05
2023-01-13T17:29:47.964Z,6.06
2023-01-13T17:32:15.184Z,6.08
2023-01-13T17:34:41.643Z,6.08
2023-01-13T17:37:08.357Z,6.10
2023-01-13T17:39:34.800Z,6.07
2023-01-13T17:42:01.256Z,6.02
2023-01-13T17:44:27.725Z,6.03
2023-01-13T17:46:54.230Z,6.06
2023-01-13T17:49:21.870Z,6.05
2023-01-13T17:51:48.479Z,6.04
2023-01-13T17:54:15.145Z,6.07
2023-01-13T17:56:41.727Z,6.05
2023-01-13T17:59:10.346Z,5.97
2023-01-13T18:01:37.235Z,5.93
2023-01-13T18:04:03.889Z,5.92
2023-01-13T18:06:30.337Z,5.93
2023-01-13T18:08:58.060Z,5.91
2023-01-13T18:11:24.505Z,5.93
2023-01-13T18:13:52.031Z,5.90
2023-01-13T18:16:19.010Z,5.84
2023-01-13T18:18:46.715Z,5.82
2023-01-13T18:21:35.219Z,5.88
2023-01-13T18:24:20.385Z,5.91
2023-01-13T18:27:05.463Z,5.85
2023-01-13T18:29:31.906Z,5.77
2023-01-13T18:31:58.396Z,5.77
2023-01-13T18:34:25.059Z,5.68
2023-01-13T18:36:51.555Z,5.64
2023-01-13T18:39:18.148Z,5.60
2023-01-13T18:42:03.266Z,5.58
2023-01-13T18:44:29.743Z,5.61
2023-01-13T18:46:56.197Z,5.61
2023-01-13T18:49:22.883Z,5.57
2023-01-13T18:51:49.403Z,5.56
2023-01-13T18:54:15.865Z,5.52
2023-01-13T18:56:42.329Z,5.51
2023-01-13T18:59:08.796Z,5.52
2023-01-13T19:01:37.172Z,5.57
2023-01-13T19:04:04.384Z,5.54
2023-01-13T19:06:33.884Z,5.52
2023-01-13T19:09:01.672Z,5.59
2023-01-13T19:11:30.569Z,5.62
2023-01-13T19:13:57.034Z,5.57
2023-01-13T19:16:23.484Z,5.52
2023-01-13T19:22:19.828Z,5.48
2023-01-13T19:24:46.426Z,5.53
2023-01-13T19:27:14.533Z,5.56
2023-01-13T19:29:45.715Z,5.53
2023-01-13T19:32:18.079Z,5.54
2023-01-13T19:34:44.738Z,5.56
2023-01-13T19:37:11.277Z,5.55
2023-01-13T19:39:37.816Z,5.59
2023-01-13T19:42:22.843Z,5.60
2023-01-13T19:48:17.604Z,5.57
2023-01-13T19:50:44.157Z,5.58
2023-01-13T19:53:14.649Z,5.62
2023-01-13T19:59:10.569Z,5.60
2023-01-13T20:01:40.650Z,5.56
2023-01-13T20:04:14.028Z,5.48
2023-01-13T20:06:40.892Z,5.37
2023-01-13T20:09:07.373Z,5.32
2023-01-13T20:11:34.103Z,5.34
2023-01-13T20:14:00.989Z,5.36
2023-01-13T20:16:27.823Z,5.36
2023-01-13T20:18:54.401Z,5.40
2023-01-13T20:21:20.906Z,5.37
2023-01-13T20:23:51.000Z,5.41
2023-01-13T20:26:17.761Z,5.45
2023-01-13T20:32:12.343Z,5.45
2023-01-13T20:34:38.835Z,5.45
2023-01-13T20:37:05.336Z,5.47
2023-01-13T20:39:31.910Z,5.51
2023-01-13T20:42:16.918Z,5.54
2023-01-13T20:44:45.012Z,5.54
2023-01-13T20:47:11.511Z,5.46
2023-01-13T20:49:41.225Z,5.42
2023-01-13T20:52:10.785Z,5.37
2023-01-13T20:54:37.429Z,5.38
2023-01-13T20:57:05.251Z,5.37
2023-01-13T20:59:31.772Z,5.37
2023-01-13T21:01:58.234Z,5.43
2023-01-13T21:04:24.762Z,5.40
2023-01-13T21:06:51.295Z,5.42
2023-01-13T21:09:17.776Z,5.40
2023-01-13T21:12:05.331Z,5.35
2023-01-13T21:14:50.476Z,5.37
2023-01-13T21:17:35.741Z,5.35
2023-01-13T21:20:04.330Z,5.34
2023-01-13T21:22:31.202Z,5.32
2023-01-13T21:24:58.566Z,5.33
2023-01-13T21:27:25.435Z,5.39
2023-01-13T21:29:52.075Z,5.41
2023-01-13T21:32:18.551Z,5.38
2023-01-13T21:34:45.037Z,5.38
2023-01-13T21:37:11.519Z,5.33
2023-01-13T21:39:37.995Z,5.35
2023-01-13T21:42:23.188Z,5.39
2023-01-13T21:45:08.394Z,5.37
2023-01-13T21:47:50.269Z,5.40
2023-01-13T21:50:18.034Z,5.48
2023-01-13T21:52:44.856Z,5.53
2023-01-13T21:55:17.442Z,5.53
2023-01-13T21:57:47.316Z,5.55
2023-01-13T22:00:14.134Z,5.56
2023-01-13T22:02:40.732Z,5.57
2023-01-13T22:05:07.658Z,5.55
2023-01-13T22:07:34.542Z,5.49
2023-01-13T22:10:01.071Z,5.48
2023-01-13T22:12:27.876Z,5.50
2023-01-13T22:14:54.461Z,5.51
2023-01-13T22:17:21.151Z,5.54
2023-01-13T22:19:48.057Z,5.55
2023-01-13T22:22:16.031Z,5.52
2023-01-13T22:24:43.599Z,5.53
2023-01-13T22:27:10.709Z,5.52
2023-01-13T22:29:37.828Z,5.53
2023-01-13T22:32:04.792Z,5.51
2023-01-13T22:34:31.284Z,5.55
2023-01-13T22:36:58.024Z,5.56
2023-01-13T22:39:24.489Z,5.54
2023-01-13T22:41:50.955Z,5.53
2023-01-13T22:44:17.447Z,5.55
2023-01-13T22:46:43.929Z,5.56
2023-01-13T22:49:11.383Z,5.54
2023-01-13T22:51:37.834Z,5.55
2023-01-13T22:54:04.390Z,5.52
2023-01-13T22:56:30.815Z,5.48
2023-01-13T22:58:57.835Z,5.52
2023-01-13T23:01:24.618Z,5.52
2023-01-13T23:03:51.144Z,5.54
2023-01-13T23:06:18.289Z,5.52
2023-01-13T23:08:44.947Z,5.49
2023-01-13T23:11:12.042Z,5.55
2023-01-13T23:13:39.366Z,5.57
2023-01-13T23:16:06.762Z,5.56
2023-01-13T23:18:33.246Z,5.54
2023-01-13T23:21:03.735Z,5.55
2023-01-13T23:23:30.496Z,5.54
2023-01-13T23:25:56.972Z,5.53
2023-01-13T23:28:23.411Z,5.54
2023-01-13T23:30:50.338Z,5.50
2023-01-13T23:33:16.838Z,5.46
2023-01-13T23:35:43.368Z,5.44
2023-01-13T23:38:09.824Z,5.46
2023-01-13T23:40:36.278Z,5.42
2023-01-13T23:43:02.722Z,5.44
2023-01-13T23:45:29.198Z,5.43
2023-01-13T23:47:55.894Z,5.43
2023-01-13T23:50:22.336Z,5.34
2023-01-13T23:52:48.826Z,5.33
2023-01-13T23:55:15.336Z,5.28
2023-01-13T23:57:42.776Z,5.25
